Preston Warton Aerodrome

About
Name: Preston Warton Aerodrome
Identifier:  WRT/EGNO
Local Time:  25. Aug 14:12 BST
Location
Statistics
Flights per Day:
0 flights
Distance: 168km (104mi)
Flights delayed:
0% (0 flights per day delayed)
Delay Average: 13008631 minutes
Current Weather
 22 C (Humidity: 68%)
  0kt from variable
  Few clouds at 3,700 feet (1,127 meter)
  9km (6 mi.)
 METAR EGNO 231550Z VRB02KT 9999 FEW037 22/16 Q1021

Current Delays

Departures
N/A
Arrivals
N/A

Destinations

Top Destinations
Airport Flights
per week
Seats
per week
  Coningsby (QCY) 2 60 0 8
  Humberside (HUY) 1 40 0 5
  Farnborough (FAB) 0 13 0 1
  Kings Lynn (KNF) 0 13 0 1

Airlines & Planes

Top Airlines
Airline Flights
per Day
Seats
per Day
  Eastern Airways 0 18
Top Plane Types
Model Flights Seats
British-Aerospace Jetstream 41 0.6/day 18/day 18.366666666666667